Time;durP1;ratioP1;P1;durP2;ratioP2;P2;SDS_P1;SDS_P2;PMS_P1;PMS_P2;Temp;Humidity;BMP_temperature;BMP_pressure;BME280_temperature;BME280_humidity;BME280_pressure;Samples;Min_cycle;Max_cycle;Signal;HPM_P1;HPM_P2
2022/07/22 00:01:01;;;;;;;13.82;10.63;;;;;;;15.57;100.00;98824.38;5106971;28;20016;-68
2022/07/22 00:03:26;;;;;;;17.75;11.00;;;;;;;15.49;100.00;98821.13;5106601;28;20254;-68
2022/07/22 00:05:51;;;;;;;14.45;10.50;;;;;;;15.29;100.00;98818.28;5106050;28;20027;-68
2022/07/22 00:08:17;;;;;;;17.02;11.25;;;;;;;15.22;100.00;98822.03;5106615;28;20256;-68
2022/07/22 00:10:42;;;;;;;18.10;10.98;;;;;;;15.27;100.00;98825.41;5106526;28;20020;-68
2022/07/22 00:13:08;;;;;;;13.98;10.93;;;;;;;15.31;100.00;98826.19;5106470;28;20039;-68
2022/07/22 00:15:33;;;;;;;12.63;10.02;;;;;;;15.32;100.00;98822.59;5106457;28;20024;-68
2022/07/22 00:17:59;;;;;;;21.35;12.02;;;;;;;15.28;100.00;98827.13;5106409;28;20035;-68
2022/07/22 00:20:24;;;;;;;17.23;10.88;;;;;;;15.23;100.00;98829.09;5106373;28;20151;-68
2022/07/22 00:22:50;;;;;;;14.93;9.82;;;;;;;15.27;100.00;98828.06;5106179;28;20020;-68
2022/07/22 00:25:15;;;;;;;17.20;11.18;;;;;;;15.29;100.00;98823.59;5106331;28;20020;-68
2022/07/22 00:27:40;;;;;;;15.55;10.90;;;;;;;15.28;100.00;98827.13;5106020;28;20316;-68
2022/07/22 00:30:06;;;;;;;20.60;11.27;;;;;;;15.28;100.00;98829.78;5106137;28;20019;-68
2022/07/22 00:32:32;;;;;;;16.05;10.68;;;;;;;15.23;100.00;98828.22;5106115;28;20027;-68
2022/07/22 00:34:57;;;;;;;16.23;10.60;;;;;;;15.09;100.00;98831.34;5106052;28;20020;-68
2022/07/22 00:37:22;;;;;;;16.38;11.93;;;;;;;15.00;100.00;98831.69;5106008;28;20031;-68
2022/07/22 00:39:48;;;;;;;18.42;11.45;;;;;;;15.03;100.00;98832.41;5106175;28;20026;-68
2022/07/22 00:42:14;;;;;;;17.30;11.48;;;;;;;14.94;100.00;98826.59;5105892;28;20315;-68
2022/07/22 00:44:39;;;;;;;16.20;11.07;;;;;;;14.89;100.00;98823.22;5105865;28;20020;-68
2022/07/22 00:47:05;;;;;;;15.70;11.15;;;;;;;14.95;100.00;98828.31;5105839;28;20030;-68
2022/07/22 00:49:31;;;;;;;16.27;12.35;;;;;;;14.88;100.00;98822.31;5105846;28;20087;-68
2022/07/22 00:51:56;;;;;;;15.05;11.02;;;;;;;14.95;100.00;98823.00;5105802;28;20207;-68
2022/07/22 00:54:22;;;;;;;19.10;12.38;;;;;;;14.90;100.00;98816.97;5105715;28;20091;-68
2022/07/22 00:56:47;;;;;;;16.17;11.32;;;;;;;14.95;100.00;98823.00;5105865;28;20024;-68
2022/07/22 00:59:14;;;;;;;19.35;11.80;;;;;;;14.95;100.00;98829.19;5105667;28;20342;-68
2022/07/22 01:01:39;;;;;;;16.00;11.63;;;;;;;14.92;100.00;98825.75;5105914;28;20367;-68
2022/07/22 01:04:05;;;;;;;15.05;11.00;;;;;;;14.69;100.00;98820.34;5105545;28;20077;-68
2022/07/22 01:06:32;;;;;;;21.55;13.80;;;;;;;14.73;100.00;98821.97;5105435;28;20047;-67
2022/07/22 01:08:58;;;;;;;25.17;12.32;;;;;;;14.68;100.00;98821.28;5105265;28;20023;-67
2022/07/22 01:11:24;;;;;;;16.27;12.25;;;;;;;14.66;100.00;98817.81;5105389;28;20077;-67
2022/07/22 01:13:50;;;;;;;15.20;11.70;;;;;;;14.56;100.00;98813.72;5105323;28;20024;-67
2022/07/22 01:16:16;;;;;;;17.23;12.27;;;;;;;14.49;100.00;98818.34;5104347;28;20220;-67
2022/07/22 01:18:43;;;;;;;19.17;13.18;;;;;;;14.50;100.00;98819.22;5105250;28;20020;-67
2022/07/22 01:21:10;;;;;;;18.38;12.10;;;;;;;14.44;100.00;98816.75;5105157;28;20027;-67
2022/07/22 01:23:36;;;;;;;17.25;11.57;;;;;;;14.46;100.00;98818.44;5105314;28;20220;-67
2022/07/22 01:26:01;;;;;;;16.42;12.50;;;;;;;14.48;100.00;98821.03;5105082;28;20019;-67
2022/07/22 01:28:27;;;;;;;17.77;12.40;;;;;;;14.47;100.00;98820.19;5104868;28;20040;-67
2022/07/22 01:30:53;;;;;;;15.15;11.73;;;;;;;14.42;100.00;98815.94;5105042;28;20339;-67
2022/07/22 01:33:19;;;;;;;16.42;11.07;;;;;;;14.48;100.00;98815.75;5104993;28;20024;-67
2022/07/22 01:35:45;;;;;;;14.23;11.15;;;;;;;14.54;100.00;98815.53;5104906;28;20024;-67
2022/07/22 01:38:11;;;;;;;20.05;11.70;;;;;;;14.55;100.00;98817.28;5104880;28;20346;-67
2022/07/22 01:40:38;;;;;;;15.50;11.75;;;;;;;14.54;100.00;98821.72;5104920;28;20100;-67
2022/07/22 01:43:03;;;;;;;17.15;11.25;;;;;;;14.62;100.00;98816.19;5104712;28;20073;-67
2022/07/22 01:45:28;;;;;;;15.82;11.73;;;;;;;14.63;100.00;98816.13;5104798;28;20019;-67
2022/07/22 01:47:54;;;;;;;13.73;10.43;;;;;;;14.50;100.00;98808.63;5104706;28;20030;-67
2022/07/22 01:50:19;;;;;;;14.80;10.93;;;;;;;14.51;100.00;98805.03;5104606;28;20083;-67
2022/07/22 01:52:45;;;;;;;17.60;10.98;;;;;;;14.53;100.00;98808.53;5104758;28;20156;-67
2022/07/22 01:55:12;;;;;;;15.35;10.48;;;;;;;14.55;100.00;98801.38;5104592;28;20031;-67
2022/07/22 01:57:38;;;;;;;17.13;11.32;;;;;;;14.47;100.00;98806.06;5104777;28;20031;-67
2022/07/22 02:00:07;;;;;;;20.52;11.80;;;;;;;14.38;100.00;98806.34;5104491;28;20065;-67
2022/07/22 02:02:32;;;;;;;15.57;9.77;;;;;;;14.45;100.00;98805.25;5104390;28;20319;-67
2022/07/22 02:04:58;;;;;;;16.13;11.18;;;;;;;14.45;100.00;98811.41;5104391;28;20091;-67
2022/07/22 02:07:24;;;;;;;13.70;11.13;;;;;;;14.54;100.00;98812.91;5104450;28;20024;-67
2022/07/22 02:09:50;;;;;;;15.70;11.75;;;;;;;14.60;100.00;98812.69;5104361;28;20020;-67
2022/07/22 02:12:15;;;;;;;16.40;11.63;;;;;;;14.54;100.00;98810.25;5104432;28;20216;-67
2022/07/22 02:14:40;;;;;;;17.33;11.52;;;;;;;14.46;100.00;98807.00;5104297;28;20027;-67
2022/07/22 02:17:06;;;;;;;21.15;11.45;;;;;;;14.41;100.00;98808.91;5104241;28;20023;-67
2022/07/22 02:19:31;;;;;;;14.38;10.65;;;;;;;14.41;100.00;98809.78;5104231;28;20215;-67
2022/07/22 02:21:56;;;;;;;15.00;10.90;;;;;;;14.33;100.00;98801.22;5104105;28;20087;-67
2022/07/22 02:24:22;;;;;;;14.52;11.30;;;;;;;14.35;100.00;98809.97;5104198;28;20028;-67
2022/07/22 02:26:47;;;;;;;16.02;10.75;;;;;;;14.39;100.00;98816.03;5104069;28;20020;-67
2022/07/22 02:29:13;;;;;;;15.70;10.70;;;;;;;14.36;100.00;98810.81;5103796;28;20251;-67
2022/07/22 02:31:38;;;;;;;15.02;10.65;;;;;;;14.31;100.00;98812.78;5104022;28;20019;-67
2022/07/22 02:34:04;;;;;;;15.73;10.18;;;;;;;14.23;100.00;98809.47;5104085;28;20031;-67
2022/07/22 02:36:29;;;;;;;14.35;10.57;;;;;;;14.27;100.00;98805.84;5104059;28;20046;-67
2022/07/22 02:38:54;;;;;;;16.08;10.57;;;;;;;14.23;100.00;98815.66;5104022;28;20024;-67
2022/07/22 02:41:20;;;;;;;14.48;10.02;;;;;;;14.18;100.00;98806.09;5104046;28;20110;-67
2022/07/22 02:43:45;;;;;;;17.80;11.00;;;;;;;14.09;100.00;98811.66;5104041;28;20046;-67
2022/07/22 02:46:10;;;;;;;14.02;11.13;;;;;;;14.01;100.00;98813.66;5103942;28;20032;-67
2022/07/22 02:48:36;;;;;;;21.83;11.88;;;;;;;14.00;100.00;98817.22;5103936;28;20091;-67
2022/07/22 02:51:03;;;;;;;27.00;11.25;;;;;;;13.90;100.00;98810.47;5103931;28;20061;-67
2022/07/22 02:53:28;;;;;;;17.85;11.77;;;;;;;13.85;100.00;98817.69;5104161;28;20019;-67
2022/07/22 02:55:53;;;;;;;19.67;12.93;;;;;;;13.92;100.00;98811.31;5103906;28;20331;-67
2022/07/22 02:58:19;;;;;;;15.98;11.27;;;;;;;13.90;100.00;98813.13;5104270;28;20030;-67
2022/07/22 03:00:44;;;;;;;15.48;12.15;;;;;;;13.87;100.00;98810.56;5103845;28;20020;-67
2022/07/22 03:03:10;;;;;;;15.45;11.07;;;;;;;13.98;100.00;98804.03;5103736;28;20039;-67
2022/07/22 03:05:35;;;;;;;17.33;11.10;;;;;;;14.03;100.00;98806.56;5103814;28;20019;-67
2022/07/22 03:08:01;;;;;;;17.45;10.82;;;;;;;14.01;100.00;98803.94;5103809;28;20047;-67
2022/07/22 03:10:26;;;;;;;14.38;11.10;;;;;;;14.03;100.00;98802.13;5103802;28;20020;-67
2022/07/22 03:12:51;;;;;;;15.35;10.55;;;;;;;13.96;100.00;98807.66;5103726;28;20020;-67
2022/07/22 03:15:17;;;;;;;20.50;11.23;;;;;;;13.81;100.00;98800.16;5103703;28;20105;-67
2022/07/22 03:17:42;;;;;;;15.10;10.93;;;;;;;13.81;100.00;98800.16;5103678;28;20316;-67
2022/07/22 03:20:09;;;;;;;18.25;11.07;;;;;;;13.75;100.00;98810.91;5103641;28;20066;-67
2022/07/22 03:22:36;;;;;;;17.30;12.02;;;;;;;13.73;100.00;98807.47;5103497;28;20020;-67
2022/07/22 03:25:02;;;;;;;16.42;11.60;;;;;;;13.67;100.00;98813.78;5103657;28;20023;-67
2022/07/22 03:27:27;;;;;;;17.00;12.02;;;;;;;13.68;100.00;98809.38;5103510;28;20024;-67
2022/07/22 03:29:53;;;;;;;20.42;12.38;;;;;;;13.66;100.00;98812.06;5103494;28;20366;-67
2022/07/22 03:32:18;;;;;;;15.68;11.52;;;;;;;13.68;100.00;98807.59;5103589;28;20023;-67
2022/07/22 03:34:44;;;;;;;16.00;11.23;;;;;;;13.58;100.00;98814.06;5103552;28;20077;-67
2022/07/22 03:37:09;;;;;;;16.95;11.10;;;;;;;13.63;100.00;98805.97;5103746;28;20047;-67
2022/07/22 03:39:34;;;;;;;21.30;12.02;;;;;;;13.54;100.00;98806.28;5104428;28;20373;-67
2022/07/22 03:42:00;;;;;;;19.63;12.02;;;;;;;13.60;100.00;98811.38;5107066;28;20031;-67
2022/07/22 03:44:26;;;;;;;18.30;11.80;;;;;;;13.63;100.00;98811.28;5107168;28;20223;-67
2022/07/22 03:46:51;;;;;;;22.50;11.40;;;;;;;13.65;100.00;98812.09;5107293;28;20024;-67
2022/07/22 03:49:16;;;;;;;14.55;11.85;;;;;;;13.62;100.00;98804.25;5106991;28;20319;-67
2022/07/22 03:51:42;;;;;;;16.77;10.38;;;;;;;13.60;100.00;98811.38;5106944;28;20024;-67
2022/07/22 03:54:08;;;;;;;15.50;11.15;;;;;;;13.58;100.00;98808.78;5107071;28;20048;-67
2022/07/22 03:56:33;;;;;;;17.98;12.30;;;;;;;13.58;100.00;98807.91;5106856;28;20290;-67
2022/07/22 03:58:58;;;;;;;17.17;12.05;;;;;;;13.59;100.00;98809.63;5106793;28;20024;-67
2022/07/22 04:01:24;;;;;;;22.85;12.35;;;;;;;13.43;100.00;98813.63;5106770;28;20055;-67
2022/07/22 04:03:49;;;;;;;16.63;10.50;;;;;;;13.40;100.00;98819.00;5106601;28;20016;-67
2022/07/22 04:06:16;;;;;;;14.75;11.23;;;;;;;13.48;100.00;98803.78;5106635;28;20062;-67
2022/07/22 04:08:42;;;;;;;19.30;11.98;;;;;;;13.51;100.00;98803.72;5106624;28;20027;-67
2022/07/22 04:11:07;;;;;;;16.77;11.18;;;;;;;13.54;100.00;98806.28;5106566;28;20091;-67
2022/07/22 04:13:32;;;;;;;13.88;11.10;;;;;;;13.54;100.00;98800.97;5106441;28;20023;-67
2022/07/22 04:15:58;;;;;;;18.25;11.88;;;;;;;13.59;100.00;98799.06;5106480;28;20024;-67
2022/07/22 04:18:23;;;;;;;16.67;10.93;;;;;;;13.57;100.00;98807.03;5106454;28;20066;-67
2022/07/22 04:20:49;;;;;;;13.25;10.43;;;;;;;13.65;100.00;98804.16;5106391;28;20035;-67
2022/07/22 04:23:15;;;;;;;14.98;11.10;;;;;;;13.74;100.00;98803.91;5106175;28;20023;-67
2022/07/22 04:25:40;;;;;;;17.13;10.38;;;;;;;13.81;100.00;98800.16;5106271;28;20031;-67
2022/07/22 04:28:06;;;;;;;14.73;10.77;;;;;;;13.86;100.00;98798.25;5106083;28;20038;-67
2022/07/22 04:30:31;;;;;;;13.80;10.27;;;;;;;13.89;100.00;98804.31;5106185;28;20230;-67
2022/07/22 04:32:58;;;;;;;15.05;11.57;;;;;;;13.94;100.00;98806.81;5106149;28;20378;-67
2022/07/22 04:35:23;;;;;;;14.93;11.85;;;;;;;13.96;100.00;98789.13;5106159;28;20242;-67
2022/07/22 04:37:48;;;;;;;17.70;11.65;;;;;;;13.97;100.00;98796.16;5106196;28;20020;-67
2022/07/22 04:40:14;;;;;;;17.20;12.35;;;;;;;13.99;100.00;98795.19;5105981;28;20220;-67
2022/07/22 04:42:39;;;;;;;15.52;10.02;;;;;;;14.11;100.00;98789.53;5105901;28;20315;-67
2022/07/22 04:45:05;;;;;;;14.10;10.45;;;;;;;14.28;100.00;98791.69;5105953;28;20069;-67
2022/07/22 04:47:30;;;;;;;13.13;10.65;;;;;;;14.33;100.00;98789.78;5105869;28;20346;-67
2022/07/22 04:49:56;;;;;;;19.23;10.98;;;;;;;14.38;100.00;98787.81;5105747;28;20020;-67
2022/07/22 04:52:21;;;;;;;13.30;10.77;;;;;;;14.56;100.00;98787.25;5105759;28;20041;-67
2022/07/22 04:54:47;;;;;;;14.80;9.82;;;;;;;15.08;100.00;98787.19;5105711;28;20031;-67
2022/07/22 04:57:12;;;;;;;11.90;9.02;;;;;;;16.37;94.73;98779.66;5105689;28;20327;-67
2022/07/22 04:59:38;;;;;;;13.05;8.65;;;;;;;17.31;88.49;98773.91;5105848;28;20016;-67
2022/07/22 05:02:03;;;;;;;12.35;8.55;;;;;;;18.09;84.27;98770.28;5105458;28;20327;-67
2022/07/22 05:04:29;;;;;;;12.85;7.78;;;;;;;18.42;80.84;98758.03;5105528;28;20023;-67
2022/07/22 05:06:54;;;;;;;10.23;7.50;;;;;;;19.04;79.15;98760.22;5105525;28;20065;-67
2022/07/22 05:09:20;;;;;;;10.82;8.25;;;;;;;19.41;77.13;98773.44;5105479;28;20087;-67
2022/07/22 05:11:46;;;;;;;10.15;7.45;;;;;;;19.60;75.00;98760.84;5105342;28;20047;-67
2022/07/22 05:14:11;;;;;;;13.82;7.13;;;;;;;19.73;75.26;98759.25;5105345;28;20023;-67
2022/07/22 05:16:39;;;;;;;11.38;7.68;;;;;;;20.20;74.81;98765.56;5105279;28;20020;-67
2022/07/22 05:19:05;;;;;;;12.30;7.35;;;;;;;20.60;74.30;98759.66;5087175;28;20019;-67
2022/07/22 05:21:31;;;;;;;10.40;8.00;;;;;;;20.98;72.04;98760.16;5105448;28;20020;-67
2022/07/22 05:23:57;;;;;;;12.65;7.25;;;;;;;21.17;72.25;98755.44;5105057;28;20414;-67
2022/07/22 05:26:24;;;;;;;10.27;8.32;;;;;;;21.28;73.40;98764.53;5105161;28;20031;-67
2022/07/22 05:28:49;;;;;;;12.00;6.28;;;;;;;22.05;69.22;98761.56;5104937;28;20107;-67
2022/07/22 05:31:14;;;;;;;9.57;7.38;;;;;;;22.27;68.30;98769.94;5105012;28;20035;-67
2022/07/22 05:33:40;;;;;;;10.10;6.95;;;;;;;22.62;68.48;98773.94;5104983;28;20022;-67
2022/07/22 05:36:06;;;;;;;13.48;7.90;;;;;;;23.02;66.88;98763.13;5104938;28;20351;-67
2022/07/22 05:38:33;;;;;;;13.82;8.98;;;;;;;22.99;68.97;98767.81;5105157;28;20051;-67
2022/07/22 05:40:58;;;;;;;15.18;8.98;;;;;;;23.26;68.30;98771.38;5104773;28;20094;-67
2022/07/22 05:43:23;;;;;;;12.93;8.77;;;;;;;23.15;70.10;98768.50;5104769;28;20026;-67
2022/07/22 05:45:49;;;;;;;10.25;7.63;;;;;;;24.23;65.27;98771.59;5104815;28;20253;-67
2022/07/22 05:48:14;;;;;;;14.63;8.18;;;;;;;24.35;64.26;98759.94;5104731;28;20087;-67
2022/07/22 05:50:40;;;;;;;15.07;9.02;;;;;;;24.49;65.39;98767.03;5104634;28;20024;-67
2022/07/22 05:53:05;;;;;;;14.60;8.98;;;;;;;25.01;64.50;98771.16;5104647;28;20075;-67
2022/07/22 05:55:31;;;;;;;11.15;8.13;;;;;;;25.65;61.88;98768.94;5104609;28;20023;-68
2022/07/22 05:57:56;;;;;;;11.55;7.70;;;;;;;25.54;62.36;98766.19;5104498;28;20069;-68
2022/07/22 06:00:22;;;;;;;14.85;8.13;;;;;;;25.59;61.31;98766.72;5104619;28;20368;-68
2022/07/22 06:02:47;;;;;;;14.73;8.73;;;;;;;25.50;60.52;98765.56;5103868;28;20032;-68
2022/07/22 06:05:13;;;;;;;13.90;7.97;;;;;;;25.28;60.22;98768.19;5104429;28;20024;-68
2022/07/22 06:07:38;;;;;;;10.50;7.30;;;;;;;25.97;60.43;98769.94;5104704;28;20023;-68
2022/07/22 06:10:04;;;;;;;11.32;7.85;;;;;;;26.13;58.67;98768.63;5104309;28;20020;-68
2022/07/22 06:12:29;;;;;;;12.43;8.18;;;;;;;26.37;58.56;98771.19;5104298;28;20242;-68
2022/07/22 06:14:55;;;;;;;12.35;8.55;;;;;;;26.43;57.76;98771.56;5104315;28;20028;-68
2022/07/22 06:17:20;;;;;;;11.13;7.45;;;;;;;26.08;57.78;98769.97;5104349;28;20050;-68
2022/07/22 06:19:46;;;;;;;11.20;7.82;;;;;;;26.30;57.40;98764.56;5104256;28;20074;-68
2022/07/22 06:22:11;;;;;;;13.38;7.55;;;;;;;26.01;57.70;98763.38;5104192;28;20023;-68
2022/07/22 06:24:37;;;;;;;11.13;7.80;;;;;;;26.65;56.69;98765.28;5104200;28;20035;-68
2022/07/22 06:27:02;;;;;;;12.93;7.75;;;;;;;26.48;57.95;98773.91;5104175;28;20024;-68
2022/07/22 06:29:27;;;;;;;11.82;7.60;;;;;;;26.68;55.63;98765.03;5104116;28;20063;-68
2022/07/22 06:31:53;;;;;;;9.95;7.03;;;;;;;26.99;56.02;98764.22;5104187;28;20024;-68
2022/07/22 06:34:18;;;;;;;14.55;7.35;;;;;;;27.80;54.40;98754.47;5104106;28;20099;-68
2022/07/22 06:36:43;;;;;;;10.75;7.80;;;;;;;27.58;52.19;98751.91;5104340;28;20019;-68
2022/07/22 06:39:09;;;;;;;17.38;7.97;;;;;;;27.93;53.42;98752.41;5104028;28;20077;-68
2022/07/22 06:41:34;;;;;;;11.13;7.20;;;;;;;28.41;51.82;98756.19;5104095;28;20320;-68
2022/07/22 06:44:00;;;;;;;13.57;7.20;;;;;;;28.35;52.75;98762.16;5103951;28;20028;-68
2022/07/22 06:46:25;;;;;;;14.70;6.50;;;;;;;28.36;53.18;98755.75;5104051;28;20342;-68
2022/07/22 06:48:50;;;;;;;10.48;6.72;;;;;;;29.01;51.56;98758.75;5104038;28;20048;-68
2022/07/22 06:51:16;;;;;;;11.65;7.45;;;;;;;29.54;50.20;98755.66;5103888;28;20024;-68
2022/07/22 06:53:42;;;;;;;12.45;6.88;;;;;;;29.21;49.84;98754.25;5103975;28;20047;-68
2022/07/22 06:56:07;;;;;;;11.52;7.45;;;;;;;29.33;49.47;98744.13;5103932;28;20020;-68
2022/07/22 06:58:33;;;;;;;11.20;6.95;;;;;;;29.11;50.25;98745.28;5103932;28;20024;-68
2022/07/22 07:00:58;;;;;;;12.68;6.82;;;;;;;29.23;50.30;98745.97;5103882;28;20057;-68
2022/07/22 07:03:25;;;;;;;11.75;7.28;;;;;;;28.57;51.50;98748.41;5103809;28;20020;-68
2022/07/22 07:05:53;;;;;;;14.52;7.32;;;;;;;28.99;49.87;98749.94;5104015;28;20307;-68
2022/07/22 07:08:19;;;;;;;13.05;7.32;;;;;;;29.43;50.63;98750.38;5103773;28;20019;-68
2022/07/22 07:10:44;;;;;;;10.93;6.47;;;;;;;30.17;48.23;98749.50;5103798;28;20069;-68
2022/07/22 07:13:10;;;;;;;17.02;6.68;;;;;;;29.03;49.92;98740.56;5103740;28;20028;-68
2022/07/22 07:15:35;;;;;;;9.20;7.10;;;;;;;28.95;50.08;98742.22;5106226;28;20032;-68
2022/07/22 07:18:01;;;;;;;10.75;7.07;;;;;;;29.09;49.94;98744.53;5107670;28;20043;-68
2022/07/22 07:20:27;;;;;;;11.60;7.70;;;;;;;28.65;50.24;98740.47;5107573;28;20023;-68
2022/07/22 07:22:52;;;;;;;9.75;6.82;;;;;;;29.93;50.08;98746.47;5107558;28;20031;-68
2022/07/22 07:25:18;;;;;;;10.07;6.57;;;;;;;30.09;47.33;98742.09;5107463;28;20189;-68
2022/07/22 07:27:43;;;;;;;9.65;6.50;;;;;;;30.62;47.84;98750.44;5107237;28;20061;-68
2022/07/22 07:30:10;;;;;;;10.88;6.68;;;;;;;30.64;45.54;98740.28;5107377;28;20031;-68
2022/07/22 07:32:36;;;;;;;9.82;7.05;;;;;;;30.30;47.22;98733.75;5107246;28;20022;-68
2022/07/22 07:35:03;;;;;;;8.90;6.72;;;;;;;30.60;47.48;98736.19;5107356;28;20327;-68
2022/07/22 07:37:29;;;;;;;13.80;7.03;;;;;;;31.04;46.15;98741.63;5107255;28;20028;-68
2022/07/22 07:39:55;;;;;;;12.57;6.93;;;;;;;30.51;46.01;98723.50;5107249;28;20024;-68
2022/07/22 07:42:20;;;;;;;10.02;6.43;;;;;;;31.31;44.44;98729.84;5107343;28;20031;-68
2022/07/22 07:44:46;;;;;;;11.30;7.65;;;;;;;29.83;47.72;98716.63;5107046;28;20036;-68
2022/07/22 07:47:15;;;;;;;17.40;7.35;;;;;;;30.69;46.75;98718.97;5107060;28;20030;-68
2022/07/22 07:49:41;;;;;;;10.75;7.10;;;;;;;30.56;46.22;98713.06;5107241;28;20035;-68
2022/07/22 07:52:06;;;;;;;11.00;7.03;;;;;;;30.76;45.19;98715.53;5106994;28;20016;-68
2022/07/22 07:54:31;;;;;;;12.15;7.50;;;;;;;30.70;45.24;98715.22;5106920;28;20031;-68
2022/07/22 07:56:57;;;;;;;13.40;7.53;;;;;;;30.04;46.86;98710.97;5106823;28;20316;-68
2022/07/22 07:59:22;;;;;;;10.52;7.53;;;;;;;30.56;46.91;98734.78;5106964;28;20316;-68
2022/07/22 08:01:48;;;;;;;12.40;7.75;;;;;;;30.28;46.00;98719.50;5106667;28;20027;-68
2022/07/22 08:04:13;;;;;;;9.65;6.43;;;;;;;30.10;46.62;98721.25;5106746;28;20024;-68
2022/07/22 08:06:38;;;;;;;9.82;7.25;;;;;;;30.46;46.41;98729.38;5106707;28;20027;-68
2022/07/22 08:09:04;;;;;;;11.20;7.50;;;;;;;30.25;46.94;98714.34;5106608;28;20235;-68
2022/07/22 08:11:29;;;;;;;10.80;7.55;;;;;;;30.45;46.63;98721.38;5106622;28;20061;-68
2022/07/22 08:13:55;;;;;;;12.77;7.32;;;;;;;30.12;47.53;98708.38;5106544;28;20211;-68
2022/07/22 08:16:20;;;;;;;7.90;6.75;;;;;;;30.66;46.41;98719.28;5106554;28;20046;-68
2022/07/22 08:18:45;;;;;;;12.82;7.78;;;;;;;30.16;46.57;98705.22;5106464;28;20365;-68
2022/07/22 08:21:11;;;;;;;12.75;6.88;;;;;;;30.78;45.74;98723.53;5106423;28;20027;-68
2022/07/22 08:23:36;;;;;;;12.18;7.55;;;;;;;30.62;45.76;98712.41;5106487;28;20047;-68
2022/07/22 08:26:02;;;;;;;13.02;6.60;;;;;;;31.39;45.93;98721.75;5105875;28;20087;-68
2022/07/22 08:28:27;;;;;;;13.75;7.18;;;;;;;32.45;43.32;98725.00;5106123;28;20047;-68
2022/07/22 08:30:53;;;;;;;10.77;6.80;;;;;;;31.63;44.77;98716.47;5106302;28;20384;-68
2022/07/22 08:33:19;;;;;;;11.23;6.60;;;;;;;32.87;42.88;98726.72;5106173;28;20046;-68
2022/07/22 08:35:44;;;;;;;12.70;7.38;;;;;;;31.70;43.89;98714.81;5106145;28;20035;-68
2022/07/22 08:38:10;;;;;;;9.68;7.10;;;;;;;32.46;43.32;98705.75;5106080;28;20338;-68
2022/07/22 08:40:35;;;;;;;10.52;6.93;;;;;;;32.49;42.88;98705.44;5106056;28;20024;-68
2022/07/22 08:43:02;;;;;;;9.73;6.72;;;;;;;32.44;42.71;98705.09;5105899;28;20233;-68
2022/07/22 08:45:31;;;;;;;13.85;7.18;;;;;;;32.29;42.95;98703.97;5105916;28;20034;-68
2022/07/22 08:47:58;;;;;;;8.80;7.07;;;;;;;32.58;43.61;98701.72;5105904;28;20020;-68
2022/07/22 08:50:25;;;;;;;12.43;6.85;;;;;;;32.51;43.06;98703.41;5106125;28;20050;-68
2022/07/22 08:52:50;;;;;;;8.90;6.88;;;;;;;33.17;42.20;98710.72;5105782;28;20343;-68
2022/07/22 08:55:15;;;;;;;12.52;7.20;;;;;;;32.52;44.26;98699.66;5105736;28;20020;-68
2022/07/22 08:57:50;;;;;;;12.73;6.63;;;;;;;33.29;41.33;98701.19;5105671;28;20024;-68
2022/07/22 09:00:19;;;;;;;9.65;6.65;;;;;;;32.79;42.22;98695.81;5105899;28;20034;-68
2022/07/22 09:02:45;;;;;;;10.90;6.55;;;;;;;33.64;42.02;98698.13;5105536;28;20116;-68
2022/07/22 09:05:13;;;;;;;8.25;6.65;;;;;;;33.51;41.63;98695.94;5105567;28;20350;-68
2022/07/22 09:07:41;;;;;;;9.57;6.45;;;;;;;33.56;40.79;98696.25;5105525;28;20320;-68
2022/07/22 09:10:13;;;;;;;10.52;6.80;;;;;;;34.01;40.15;98706.63;5105714;28;20197;-68
2022/07/22 09:13:09;;;;;;;10.25;7.20;;;;;;;34.22;40.50;98709.63;5105411;28;20357;-68
2022/07/22 09:15:39;;;;;;;9.98;6.53;;;;;;;33.96;40.42;98709.03;5105411;28;20026;-68
2022/07/22 09:18:06;;;;;;;11.48;6.68;;;;;;;34.04;40.35;98706.28;5105331;28;20028;-68
2022/07/22 09:20:32;;;;;;;9.45;6.60;;;;;;;34.31;41.03;98703.09;5105303;28;20081;-68
2022/07/22 09:22:57;;;;;;;15.52;6.93;;;;;;;34.71;39.17;98702.94;5105256;28;20028;-68
2022/07/22 09:25:31;;;;;;;9.05;6.82;;;;;;;34.47;39.38;98698.47;5105185;28;20051;-68
2022/07/22 09:28:06;;;;;;;9.32;6.85;;;;;;;34.46;40.58;98695.91;5104871;28;20059;-68
2022/07/22 09:30:36;;;;;;;8.15;6.72;;;;;;;33.35;40.60;98689.59;5105070;28;20086;-68
2022/07/22 09:33:03;;;;;;;7.82;6.38;;;;;;;34.40;40.00;98685.69;5105108;28;20047;-68
2022/07/22 09:35:30;;;;;;;10.77;6.70;;;;;;;34.37;39.09;98677.84;5104998;28;20039;-68
2022/07/22 09:37:58;;;;;;;9.63;7.03;;;;;;;34.13;39.66;98672.44;5104382;28;20304;-68
2022/07/22 09:40:26;;;;;;;10.25;6.93;;;;;;;33.50;41.20;98669.66;5104890;28;20027;-68
2022/07/22 09:42:54;;;;;;;10.15;6.78;;;;;;;33.30;40.38;98668.28;5104989;28;20174;-68
2022/07/22 09:45:21;;;;;;;8.63;6.88;;;;;;;32.88;41.44;98654.81;5105001;28;20051;-68
2022/07/22 09:47:48;;;;;;;15.50;7.60;;;;;;;32.79;41.43;98654.91;5104760;28;20023;-68
2022/07/22 09:50:22;;;;;;;11.02;6.32;;;;;;;33.24;41.50;98647.13;5104735;28;20216;-68
2022/07/22 09:52:50;;;;;;;13.32;7.28;;;;;;;32.73;41.93;98642.81;5104675;28;20020;-68
2022/07/22 09:55:17;;;;;;;10.43;7.15;;;;;;;33.28;41.36;98647.66;5104625;28;20377;-68
2022/07/22 09:57:43;;;;;;;9.00;6.70;;;;;;;33.80;40.88;98648.94;5104339;28;20026;-68
2022/07/22 10:00:10;;;;;;;10.52;7.10;;;;;;;34.10;40.26;98643.56;5104523;28;20380;-68
2022/07/22 10:02:41;;;;;;;14.18;7.10;;;;;;;32.86;41.29;98632.28;5104437;28;20342;-68
2022/07/22 10:05:10;;;;;;;16.15;7.78;;;;;;;33.15;41.05;98641.84;5104563;28;20110;-68
2022/07/22 10:07:37;;;;;;;9.43;6.63;;;;;;;33.13;40.44;98635.72;5104493;28;20024;-68
2022/07/22 10:10:03;;;;;;;8.98;6.53;;;;;;;32.97;41.33;98629.22;5104681;28;20020;-68
2022/07/22 10:12:31;;;;;;;9.05;6.95;;;;;;;32.91;41.34;98629.94;5104377;28;20019;-68
2022/07/22 10:14:57;;;;;;;9.57;6.60;;;;;;;32.73;41.74;98625.59;5104312;28;20031;-68
2022/07/22 10:17:23;;;;;;;9.90;6.78;;;;;;;33.33;40.20;98623.41;5104328;28;20087;-68
2022/07/22 10:19:48;;;;;;;12.15;6.68;;;;;;;33.60;39.60;98625.78;5104290;28;20020;-68
2022/07/22 10:22:38;;;;;;;12.43;7.00;;;;;;;32.94;40.48;98621.38;5104207;28;20024;-68
2022/07/22 10:25:05;;;;;;;10.40;6.90;;;;;;;33.22;40.85;98621.03;5104126;28;20254;-68
2022/07/22 10:27:50;;;;;;;13.32;7.03;;;;;;;33.00;40.46;98617.97;5104182;28;20323;-68
2022/07/22 10:30:21;;;;;;;9.38;6.68;;;;;;;32.43;41.48;98602.53;5104087;28;20028;-68
2022/07/22 10:33:05;;;;;;;9.75;6.88;;;;;;;33.72;40.14;98608.03;5104158;28;20020;-68
2022/07/22 10:35:31;;;;;;;14.15;6.15;;;;;;;34.06;39.45;98611.31;5104161;28;20020;-68
2022/07/22 10:38:00;;;;;;;10.45;6.57;;;;;;;33.33;39.55;98607.03;5104107;28;20099;-68
2022/07/22 10:40:29;;;;;;;9.30;6.30;;;;;;;33.21;39.83;98603.81;5104065;28;20224;-68
2022/07/22 10:42:58;;;;;;;9.35;6.75;;;;;;;33.18;40.91;98608.78;5103918;28;20040;-68
2022/07/22 10:45:28;;;;;;;9.85;6.70;;;;;;;33.55;41.16;98603.63;5104259;28;20024;-68
2022/07/22 10:47:55;;;;;;;11.27;6.93;;;;;;;34.02;40.50;98610.84;5104008;28;20024;-68
2022/07/22 10:50:39;;;;;;;9.75;6.53;;;;;;;33.39;40.01;98599.06;5108035;28;20016;-68
2022/07/22 10:53:08;;;;;;;9.80;6.65;;;;;;;33.86;40.60;98599.09;5108070;28;20044;-68
2022/07/22 10:55:35;;;;;;;12.65;6.95;;;;;;;34.10;38.41;98590.84;5108140;28;20034;-68
2022/07/22 10:58:20;;;;;;;11.27;6.65;;;;;;;33.51;39.50;98577.69;5107973;28;20030;-68
2022/07/22 11:00:46;;;;;;;10.10;6.15;;;;;;;33.81;40.10;98590.56;5107880;28;20023;-68
2022/07/22 11:03:12;;;;;;;9.40;6.75;;;;;;;34.15;39.36;98588.41;5107822;28;20091;-68
2022/07/22 11:05:37;;;;;;;9.98;6.05;;;;;;;33.60;41.07;98576.66;5107899;28;20026;-68
2022/07/22 11:08:08;;;;;;;8.60;6.15;;;;;;;33.13;40.59;98569.19;5107876;28;20347;-68
2022/07/22 11:10:34;;;;;;;12.68;6.35;;;;;;;32.98;40.82;98565.50;5107707;28;20030;-68
2022/07/22 11:12:59;;;;;;;10.27;6.13;;;;;;;33.01;41.76;98570.59;5107715;28;20040;-68
2022/07/22 11:15:26;;;;;;;7.75;5.88;;;;;;;33.46;42.09;98570.03;5107687;28;20031;-68